Time;durP1;ratioP1;P1;durP2;ratioP2;P2;SDS_P1;SDS_P2;PMS_P1;PMS_P2;Temp;Humidity;BMP_temperature;BMP_pressure;BME280_temperature;BME280_humidity;BME280_pressure;Samples;Min_cycle;Max_cycle;Signal;HPM_P1;HPM_P2
2022/08/29 00:00:12;;;;;;;0.40;0.22;;;;;;;20.17;100.00;100613.47;7390020;19;20010;-57
2022/08/29 00:02:38;;;;;;;2.05;0.55;;;;;;;20.34;100.00;100619.03;7391030;19;20028;-57
2022/08/29 00:05:06;;;;;;;3.90;0.32;;;;;;;20.44;100.00;100616.66;7392091;19;20010;-57
2022/08/29 00:07:33;;;;;;;0.57;0.38;;;;;;;20.45;100.00;100618.97;7391741;19;20465;-57
2022/08/29 00:09:59;;;;;;;1.75;0.32;;;;;;;20.39;100.00;100612.59;7390649;19;20341;-57
2022/08/29 00:12:25;;;;;;;1.00;0.20;;;;;;;20.44;100.00;100608.94;7395571;19;20024;-57
2022/08/29 00:14:51;;;;;;;0.73;0.28;;;;;;;20.44;100.00;100614.59;7390354;19;20022;-57
2022/08/29 00:17:17;;;;;;;0.38;0.38;;;;;;;20.55;100.00;100608.88;7391713;19;20474;-57
2022/08/29 00:19:43;;;;;;;1.45;0.30;;;;;;;20.65;100.00;100612.91;7393148;19;20014;-58
2022/08/29 00:22:10;;;;;;;0.30;0.30;;;;;;;20.58;100.00;100607.78;7389655;19;20044;-57
2022/08/29 00:24:36;;;;;;;0.30;0.10;;;;;;;20.48;100.00;100609.44;7390668;19;20332;-57
2022/08/29 00:27:02;;;;;;;0.38;0.10;;;;;;;20.50;100.00;100606.84;7393879;19;20014;-57
2022/08/29 00:29:28;;;;;;;0.43;0.15;;;;;;;20.47;100.00;100616.38;7390695;19;20014;-57
2022/08/29 00:31:55;;;;;;;1.00;0.38;;;;;;;20.37;100.00;100607.47;7389917;19;20010;-57
2022/08/29 00:34:21;;;;;;;0.10;0.10;;;;;;;20.48;100.00;100600.94;7390632;19;20015;-57
2022/08/29 00:36:47;;;;;;;0.10;0.10;;;;;;;20.50;100.00;100597.56;7394484;19;20011;-57
2022/08/29 00:39:13;;;;;;;7.95;0.32;;;;;;;20.34;100.00;100605.66;7388080;19;20019;-58
2022/08/29 00:41:39;;;;;;;1.95;0.15;;;;;;;20.27;100.00;100603.38;7390507;19;20022;-57
2022/08/29 00:44:05;;;;;;;0.60;0.15;;;;;;;20.29;100.00;100608.53;7390581;19;20006;-57
2022/08/29 00:46:41;;;;;;;0.30;0.20;;;;;;;20.32;100.00;100613.13;7392836;19;20034;-57
2022/08/29 00:49:13;;;;;;;0.70;0.35;;;;;;;20.01;100.00;100607.91;7392283;19;20010;-57
2022/08/29 00:51:40;;;;;;;6.93;0.50;;;;;;;19.96;100.00;100611.53;7389114;19;20007;-56
2022/08/29 00:54:09;;;;;;;4.13;0.30;;;;;;;20.00;100.00;100612.03;7389432;19;20010;-57
2022/08/29 00:56:38;;;;;;;1.85;0.15;;;;;;;19.95;100.00;100619.25;7392813;19;20011;-56
2022/08/29 00:59:17;;;;;;;1.05;0.50;;;;;;;19.54;100.00;100615.56;7387994;19;20011;-56
2022/08/29 01:01:44;;;;;;;3.58;0.10;;;;;;;19.54;100.00;100619.19;7389980;19;20070;-57
2022/08/29 01:04:10;;;;;;;0.77;0.40;;;;;;;19.23;100.00;100627.97;7389689;19;20029;-56
2022/08/29 01:06:40;;;;;;;0.85;0.28;;;;;;;18.96;100.00;100628.78;7394284;19;20015;-56
2022/08/29 01:09:07;;;;;;;0.10;0.08;;;;;;;19.02;100.00;100628.75;7396557;19;20470;-56
2022/08/29 01:14:20;;;;;;;0.90;0.30;;;;;;;19.28;100.00;100635.66;7397281;19;20482;-56
2022/08/29 01:16:48;;;;;;;0.80;0.22;;;;;;;19.28;100.00;100632.84;7399710;19;20035;-56
2022/08/29 01:19:40;;;;;;;0.70;0.20;;;;;;;19.21;100.00;100641.06;7398507;19;20003;-56
2022/08/29 01:22:46;;;;;;;0.47;0.25;;;;;;;19.16;100.00;100639.81;7395551;19;20014;-56
2022/08/29 01:25:18;;;;;;;0.10;0.10;;;;;;;18.97;100.00;100641.63;7397079;19;20479;-57
2022/08/29 01:27:51;;;;;;;0.20;0.00;;;;;;;18.46;100.00;100650.56;7397484;19;20017;-56
2022/08/29 01:30:18;;;;;;;1.67;0.40;;;;;;;18.60;100.00;100646.75;7397216;19;20846;-57
2022/08/29 01:32:44;;;;;;;0.75;0.38;;;;;;;18.79;100.00;100644.97;7394547;19;20028;-56
2022/08/29 01:35:10;;;;;;;1.40;0.20;;;;;;;18.78;100.00;100640.59;7395605;19;20466;-56
2022/08/29 01:37:40;;;;;;;0.63;0.47;;;;;;;18.87;100.00;100645.97;7396545;19;20029;-56
2022/08/29 01:40:06;;;;;;;0.43;0.10;;;;;;;18.96;100.00;100651.38;7393405;19;20087;-56
2022/08/29 01:42:33;;;;;;;1.05;0.40;;;;;;;19.16;100.00;100641.84;7397288;19;20022;-56
2022/08/29 01:44:59;;;;;;;0.10;0.10;;;;;;;19.20;100.00;100656.47;7395875;19;20010;-56
2022/08/29 01:47:33;;;;;;;2.28;0.17;;;;;;;19.38;100.00;100656.72;7395876;19;20475;-56
2022/08/29 01:50:00;;;;;;;1.73;0.60;;;;;;;19.53;100.00;100651.53;7400308;19;20015;-56
2022/08/29 01:52:27;;;;;;;2.83;0.55;;;;;;;19.64;100.00;100654.31;7394471;19;20011;-56
2022/08/29 01:54:53;;;;;;;1.00;0.10;;;;;;;19.70;100.00;100648.66;7395295;19;20021;-56
2022/08/29 01:57:19;;;;;;;1.27;0.43;;;;;;;19.77;100.00;100648.13;7395163;19;20011;-57
2022/08/29 01:59:46;;;;;;;3.50;0.20;;;;;;;19.78;100.00;100648.88;7392464;19;20010;-56
2022/08/29 02:02:16;;;;;;;2.40;0.38;;;;;;;19.81;100.00;100647.84;7395314;19;20347;-56
2022/08/29 02:04:44;;;;;;;0.43;0.43;;;;;;;19.79;100.00;100644.78;7395373;19;20112;-56
2022/08/29 02:07:11;;;;;;;0.10;0.10;;;;;;;19.67;100.00;100647.66;7403193;19;20010;-57
2022/08/29 02:09:37;;;;;;;3.92;0.20;;;;;;;19.75;100.00;100641.47;7399833;19;20343;-57
2022/08/29 02:12:06;;;;;;;1.05;0.20;;;;;;;19.74;100.00;100637.06;7400243;19;20066;-56
2022/08/29 02:14:34;;;;;;;0.25;0.25;;;;;;;19.75;100.00;100638.63;7395603;19;20021;-56
2022/08/29 02:17:01;;;;;;;0.17;0.10;;;;;;;19.71;100.00;100632.47;7399646;19;20018;-57
2022/08/29 02:19:27;;;;;;;0.10;0.10;;;;;;;19.72;100.00;100634.78;7394408;19;20511;-56
2022/08/29 02:21:54;;;;;;;1.30;0.30;;;;;;;19.71;100.00;100638.13;7394671;19;20335;-57
2022/08/29 02:24:20;;;;;;;7.93;0.50;;;;;;;19.73;100.00;100635.56;7395335;19;20086;-56
2022/08/29 02:26:46;;;;;;;0.40;0.28;;;;;;;19.84;100.00;100641.16;7396474;19;20041;-56
2022/08/29 02:29:12;;;;;;;0.17;0.15;;;;;;;19.49;100.00;100645.38;7394375;19;20035;-56
2022/08/29 02:31:39;;;;;;;0.30;0.13;;;;;;;19.81;100.00;100639.38;7394386;19;20110;-56
2022/08/29 02:34:06;;;;;;;0.32;0.17;;;;;;;19.72;100.00;100648.13;7394805;19;20021;-56
2022/08/29 02:36:34;;;;;;;1.75;0.57;;;;;;;19.62;100.00;100648.44;7398300;19;20011;-56
2022/08/29 02:39:00;;;;;;;3.03;0.10;;;;;;;19.80;100.00;100646.31;7392850;19;20365;-56
2022/08/29 02:41:26;;;;;;;1.13;0.20;;;;;;;19.92;100.00;100644.97;7392354;19;20015;-56
2022/08/29 02:43:52;;;;;;;1.58;0.25;;;;;;;19.87;100.00;100646.53;7394366;19;20035;-56
2022/08/29 02:46:19;;;;;;;0.10;0.00;;;;;;;19.82;100.00;100649.38;7396026;19;20010;-56
2022/08/29 02:48:47;;;;;;;0.15;0.13;;;;;;;19.80;100.00;100649.13;7395642;19;20373;-56
2022/08/29 02:51:23;;;;;;;1.38;0.52;;;;;;;19.59;100.00;100649.47;7393671;19;20018;-56
2022/08/29 02:53:49;;;;;;;0.10;0.10;;;;;;;20.00;100.00;100648.78;7394422;19;20006;-56
2022/08/29 02:56:17;;;;;;;0.68;0.50;;;;;;;20.23;100.00;100650.22;7395211;19;20376;-56
2022/08/29 02:58:43;;;;;;;0.20;0.20;;;;;;;20.27;100.00;100650.75;7393552;19;20367;-56
2022/08/29 03:01:10;;;;;;;1.98;0.60;;;;;;;20.23;100.00;100644.56;7393609;19;20014;-56
2022/08/29 03:03:36;;;;;;;0.63;0.20;;;;;;;19.92;100.00;100639.31;7394269;19;20458;-56
2022/08/29 03:06:03;;;;;;;0.40;0.40;;;;;;;19.89;100.00;100646.78;7396062;19;20025;-56
2022/08/29 03:08:29;;;;;;;0.47;0.30;;;;;;;19.92;100.00;100656.28;7391998;19;20014;-57
2022/08/29 03:10:55;;;;;;;0.75;0.47;;;;;;;19.94;100.00;100650.88;7394165;19;20011;-56
2022/08/29 03:13:22;;;;;;;0.05;0.00;;;;;;;19.90;100.00;100648.34;7394171;19;20014;-56
2022/08/29 03:15:48;;;;;;;0.30;0.30;;;;;;;19.80;100.00;100651.94;7394752;19;20011;-56
2022/08/29 03:18:15;;;;;;;0.95;0.30;;;;;;;19.83;100.00;100650.94;7394064;19;20502;-56
2022/08/29 03:20:42;;;;;;;1.58;0.20;;;;;;;19.84;100.00;100655.31;7391104;19;20026;-56
2022/08/29 03:23:08;;;;;;;1.02;0.50;;;;;;;19.72;100.00;100656.63;7393067;19;20014;-56
2022/08/29 03:25:34;;;;;;;6.72;0.30;;;;;;;19.72;100.00;100656.63;7392886;19;20095;-56
2022/08/29 03:28:01;;;;;;;1.35;0.50;;;;;;;19.70;100.00;100645.84;7392990;19;20743;-56
2022/08/29 03:30:28;;;;;;;0.43;0.17;;;;;;;19.67;100.00;100650.47;7391995;19;20033;-56
2022/08/29 03:32:56;;;;;;;0.55;0.20;;;;;;;19.63;100.00;100649.97;7392355;19;20013;-57
2022/08/29 03:35:22;;;;;;;0.65;0.30;;;;;;;19.59;100.00;100660.00;7393446;19;20017;-56
2022/08/29 03:37:50;;;;;;;2.05;0.50;;;;;;;19.55;100.00;100648.97;7392536;19;20626;-56
2022/08/29 03:40:17;;;;;;;0.75;0.55;;;;;;;19.68;100.00;100657.66;7391020;19;20018;-56
2022/08/29 03:42:44;;;;;;;0.10;0.05;;;;;;;19.80;100.00;100657.59;7392733;19;20034;-56
2022/08/29 03:45:14;;;;;;;1.10;0.10;;;;;;;19.87;100.00;100657.06;7391881;19;20078;-57
2022/08/29 03:47:41;;;;;;;3.03;0.93;;;;;;;20.09;100.00;100659.78;7392080;19;20007;-56
2022/08/29 03:50:09;;;;;;;0.20;0.17;;;;;;;19.99;100.00;100653.66;7396235;19;20462;-56
2022/08/29 03:52:35;;;;;;;1.42;0.47;;;;;;;20.12;100.00;100661.59;7392501;19;20021;-56
2022/08/29 03:55:02;;;;;;;0.55;0.40;;;;;;;19.98;100.00;100651.38;7392186;19;20021;-56
2022/08/29 03:57:31;;;;;;;4.03;0.50;;;;;;;20.21;100.00;100658.47;7391826;19;20017;-56
2022/08/29 03:59:58;;;;;;;1.23;0.68;;;;;;;20.26;100.00;100661.28;7390482;19;20015;-56
2022/08/29 04:02:24;;;;;;;0.10;0.10;;;;;;;20.44;100.00;100654.22;7390221;19;20014;-56
2022/08/29 04:05:08;;;;;;;0.85;0.55;;;;;;;20.39;100.00;100658.63;7391477;19;20055;-57
2022/08/29 04:07:44;;;;;;;1.05;0.40;;;;;;;20.47;100.00;100658.81;7391851;19;20014;-56
2022/08/29 04:10:15;;;;;;;2.83;0.40;;;;;;;20.41;100.00;100655.25;7391447;19;20041;-57
2022/08/29 04:12:41;;;;;;;0.47;0.32;;;;;;;20.44;100.00;100661.94;7396078;19;20452;-56
2022/08/29 04:15:08;;;;;;;1.48;0.20;;;;;;;20.38;100.00;100650.63;7390593;19;20017;-56
2022/08/29 04:17:34;;;;;;;0.45;0.20;;;;;;;20.35;100.00;100657.38;7390115;19;20028;-56
2022/08/29 04:20:01;;;;;;;0.60;0.30;;;;;;;20.47;100.00;100658.81;7393493;19;20386;-57
2022/08/29 04:22:27;;;;;;;0.10;0.00;;;;;;;20.47;100.00;100652.38;7391195;19;20354;-56
2022/08/29 04:24:54;;;;;;;0.40;0.10;;;;;;;20.51;100.00;100653.63;7391006;19;20617;-56
2022/08/29 04:27:20;;;;;;;8.95;0.52;;;;;;;20.52;100.00;100663.69;7390397;19;20011;-56
2022/08/29 04:29:47;;;;;;;0.52;0.20;;;;;;;20.54;100.00;100663.16;7391172;19;20019;-56
2022/08/29 04:32:15;;;;;;;0.52;0.20;;;;;;;20.54;100.00;100658.25;7390616;19;20018;-56
2022/08/29 04:34:41;;;;;;;0.20;0.10;;;;;;;20.63;100.00;100662.81;7390145;19;20017;-56
2022/08/29 04:37:07;;;;;;;1.63;0.22;;;;;;;20.68;100.00;100668.44;7393523;19;20021;-56
2022/08/29 04:39:34;;;;;;;0.57;0.20;;;;;;;20.55;100.00;100665.47;7387430;19;20011;-56
2022/08/29 04:42:00;;;;;;;1.73;0.40;;;;;;;20.49;100.00;100664.72;7389369;19;20631;-56
2022/08/29 04:44:26;;;;;;;4.18;1.10;;;;;;;20.51;100.00;100669.88;7390666;19;20022;-56
2022/08/29 04:46:52;;;;;;;1.20;0.30;;;;;;;20.58;100.00;100664.41;7394449;19;20014;-56
2022/08/29 04:49:18;;;;;;;0.63;0.17;;;;;;;20.57;100.00;100668.53;7393634;19;20010;-56
2022/08/29 04:51:44;;;;;;;0.10;0.00;;;;;;;20.61;100.00;100669.03;7390188;19;20070;-56
2022/08/29 04:54:10;;;;;;;0.15;0.10;;;;;;;20.58;100.00;100669.28;7390645;19;20031;-56
2022/08/29 04:56:37;;;;;;;0.63;0.35;;;;;;;20.48;100.00;100677.34;7392910;19;20462;-56
2022/08/29 04:59:03;;;;;;;5.57;0.30;;;;;;;20.45;100.00;100678.38;7389449;19;20031;-56
2022/08/29 05:01:30;;;;;;;0.38;0.10;;;;;;;20.38;100.00;100690.25;7389918;19;20027;-56
2022/08/29 05:03:56;;;;;;;0.55;0.20;;;;;;;20.34;100.00;100684.09;7389505;19;20011;-57
2022/08/29 05:06:24;;;;;;;1.77;0.63;;;;;;;20.32;100.00;100698.00;7392559;19;20026;-56
2022/08/29 05:08:51;;;;;;;1.65;0.50;;;;;;;20.30;100.00;100694.94;7389210;19;20045;-56
2022/08/29 05:11:19;;;;;;;1.02;0.40;;;;;;;20.36;100.00;100704.16;7391525;19;20043;-56
2022/08/29 05:13:47;;;;;;;0.38;0.20;;;;;;;20.34;100.00;100696.19;7390756;19;20046;-57
2022/08/29 05:16:15;;;;;;;1.60;0.47;;;;;;;20.31;100.00;100702.16;7395720;19;20022;-56
2022/08/29 05:18:43;;;;;;;0.30;0.25;;;;;;;20.30;100.00;100706.25;7393083;19;20049;-57
2022/08/29 05:21:11;;;;;;;0.47;0.22;;;;;;;20.27;100.00;100707.31;7389639;19;20031;-56
2022/08/29 05:23:37;;;;;;;0.20;0.20;;;;;;;20.26;100.00;100705.75;7389260;19;20829;-56
2022/08/29 05:26:04;;;;;;;1.45;0.55;;;;;;;20.26;100.00;100702.94;7388493;19;20033;-56
2022/08/29 05:28:32;;;;;;;1.20;0.63;;;;;;;20.33;100.00;100710.88;7389111;19;20026;-56
2022/08/29 05:30:59;;;;;;;1.80;0.60;;;;;;;20.34;100.00;100712.41;7389138;19;20021;-56
2022/08/29 05:33:28;;;;;;;3.22;1.23;;;;;;;20.31;100.00;100708.56;7386925;19;20018;-56
2022/08/29 05:35:55;;;;;;;2.25;1.10;;;;;;;20.30;100.00;100707.03;7389130;19;20010;-56
2022/08/29 05:38:22;;;;;;;0.75;0.60;;;;;;;20.29;100.00;100718.88;7388427;19;20843;-56
2022/08/29 05:40:48;;;;;;;1.08;0.35;;;;;;;20.33;100.00;100711.66;7390086;19;20049;-56
2022/08/29 05:43:14;;;;;;;2.95;0.50;;;;;;;20.41;100.00;100706.19;7391848;19;20320;-56
2022/08/29 05:45:41;;;;;;;2.95;0.20;;;;;;;20.33;100.00;100710.88;7390998;19;20018;-56
2022/08/29 05:48:08;;;;;;;0.60;0.25;;;;;;;20.28;100.00;100715.28;7390298;19;20015;-56
2022/08/29 05:50:40;;;;;;;1.65;0.50;;;;;;;20.30;100.00;100709.09;7388913;19;20078;-56
2022/08/29 05:53:08;;;;;;;0.65;0.63;;;;;;;20.31;100.00;100710.63;7391572;19;20023;-56
2022/08/29 05:55:42;;;;;;;0.40;0.35;;;;;;;20.28;100.00;100711.66;7397285;19;20019;-56
2022/08/29 05:58:08;;;;;;;1.30;0.47;;;;;;;20.33;100.00;100713.72;7395994;19;20014;-56
2022/08/29 06:00:38;;;;;;;1.55;0.43;;;;;;;20.35;100.00;100709.06;7396717;19;20083;-56
2022/08/29 06:03:04;;;;;;;3.25;1.30;;;;;;;20.39;100.00;100708.78;7396265;19;20019;-56
2022/08/29 06:05:30;;;;;;;5.05;0.70;;;;;;;20.40;100.00;100715.97;7397381;19;20044;-56
2022/08/29 06:07:57;;;;;;;1.65;1.20;;;;;;;20.48;100.00;100708.47;7395726;19;20457;-57
2022/08/29 06:10:23;;;;;;;3.72;0.65;;;;;;;20.54;100.00;100714.09;7395407;19;20494;-56
2022/08/29 06:12:49;;;;;;;2.88;0.98;;;;;;;20.51;100.00;100710.25;7395901;19;20006;-56
2022/08/29 06:15:15;;;;;;;1.05;0.70;;;;;;;20.33;100.00;100716.53;7394508;19;20347;-56
2022/08/29 06:17:41;;;;;;;1.90;1.02;;;;;;;20.31;100.00;100716.28;7395565;19;20034;-56
2022/08/29 06:20:08;;;;;;;1.50;0.32;;;;;;;20.49;100.00;100710.00;7396925;19;20010;-56
2022/08/29 06:22:37;;;;;;;2.97;0.93;;;;;;;20.60;100.00;100717.66;7395634;19;20011;-56
2022/08/29 06:25:04;;;;;;;1.80;1.02;;;;;;;20.75;100.00;100713.16;7395569;19;20006;-56
2022/08/29 06:27:30;;;;;;;3.53;1.60;;;;;;;20.92;100.00;100715.91;7392403;19;20463;-56
2022/08/29 06:29:57;;;;;;;1.20;0.38;;;;;;;20.96;100.00;100722.78;7394440;19;20009;-56
2022/08/29 06:32:23;;;;;;;2.28;1.08;;;;;;;20.84;100.00;100712.84;7394296;19;20366;-56
2022/08/29 06:34:49;;;;;;;1.85;0.90;;;;;;;21.01;100.00;100712.72;7392494;19;20016;-56
2022/08/29 06:37:16;;;;;;;3.05;1.02;;;;;;;21.02;100.00;100715.03;7399016;19;20007;-56
2022/08/29 06:39:42;;;;;;;1.30;0.52;;;;;;;21.06;100.00;100715.53;7391689;19;20033;-56
2022/08/29 06:42:08;;;;;;;3.90;1.40;;;;;;;21.08;100.00;100720.69;7394410;19;20565;-56
2022/08/29 06:44:34;;;;;;;1.77;1.05;;;;;;;21.17;100.00;100733.72;7394557;19;20050;-56
2022/08/29 06:47:00;;;;;;;1.55;0.57;;;;;;;21.20;100.00;100722.13;7397901;19;20015;-56
2022/08/29 06:49:27;;;;;;;2.10;0.70;;;;;;;21.24;100.00;100731.09;7397394;19;20027;-56
2022/08/29 06:51:54;;;;;;;0.75;0.32;;;;;;;21.24;100.00;100721.84;7393609;19;20047;-56
2022/08/29 06:54:23;;;;;;;1.98;1.00;;;;;;;21.21;100.00;100720.81;7393907;19;20078;-56
2022/08/29 06:56:49;;;;;;;1.05;0.43;;;;;;;21.26;100.00;100724.91;7397585;19;20029;-56
2022/08/29 06:59:17;;;;;;;2.05;0.80;;;;;;;21.26;100.00;100722.06;7392935;19;20020;-56
2022/08/29 07:01:44;;;;;;;2.40;1.20;;;;;;;21.44;100.00;100727.06;7393676;19;20360;-56
2022/08/29 07:04:11;;;;;;;1.98;0.65;;;;;;;21.47;100.00;100732.44;7392103;19;20011;-56
2022/08/29 07:06:38;;;;;;;0.70;0.28;;;;;;;21.54;100.00;100731.84;7396475;19;20462;-56
2022/08/29 07:09:05;;;;;;;7.30;1.05;;;;;;;21.62;100.00;100726.34;7391995;19;20020;-56
2022/08/29 07:11:32;;;;;;;4.10;1.17;;;;;;;21.67;100.00;100731.19;7395490;19;20635;-56
2022/08/29 07:14:01;;;;;;;1.60;0.70;;;;;;;21.63;100.00;100733.56;7394536;19;20018;-56
2022/08/29 07:16:28;;;;;;;0.95;0.70;;;;;;;21.60;100.00;100729.72;7396400;19;20459;-56
2022/08/29 07:18:54;;;;;;;1.95;0.93;;;;;;;21.65;100.00;100733.81;7396256;19;20018;-56
2022/08/29 07:21:23;;;;;;;2.88;1.13;;;;;;;21.84;100.00;100729.75;7396967;19;20014;-56
2022/08/29 07:23:50;;;;;;;0.73;0.43;;;;;;;21.99;100.00;100731.38;7397165;19;20007;-56
2022/08/29 07:26:20;;;;;;;1.80;0.30;;;;;;;21.99;100.00;100728.53;7396471;19;20011;-56
2022/08/29 07:28:49;;;;;;;4.22;0.32;;;;;;;22.04;100.00;100728.50;7393481;19;20010;-56
2022/08/29 07:31:15;;;;;;;0.43;0.30;;;;;;;22.10;100.00;100726.34;7396720;19;20029;-56
2022/08/29 07:33:42;;;;;;;1.45;0.50;;;;;;;22.19;100.00;100728.03;7397035;19;20022;-56
2022/08/29 07:36:09;;;;;;;3.92;1.02;;;;;;;22.18;100.00;100729.31;7396676;19;20016;-56
2022/08/29 07:38:36;;;;;;;0.98;0.50;;;;;;;22.31;100.00;100735.88;7395143;19;20019;-56
2022/08/29 07:41:05;;;;;;;1.77;0.73;;;;;;;22.45;100.00;100737.50;7395873;19;20011;-56
2022/08/29 07:43:32;;;;;;;1.30;0.47;;;;;;;22.38;100.00;100732.44;7393379;19;20013;-56
2022/08/29 07:45:58;;;;;;;1.88;0.98;;;;;;;22.50;100.00;100736.63;7395943;19;20006;-56
2022/08/29 07:48:25;;;;;;;1.40;0.35;;;;;;;22.68;100.00;100748.56;7392503;19;20022;-56
2022/08/29 07:50:52;;;;;;;0.28;0.28;;;;;;;22.72;100.00;100740.50;7391495;19;20010;-56
2022/08/29 07:53:18;;;;;;;0.35;0.20;;;;;;;22.75;100.00;100742.25;7392253;19;20010;-56
2022/08/29 07:55:45;;;;;;;0.63;0.40;;;;;;;22.57;100.00;100743.78;7392735;19;20498;-56
2022/08/29 07:58:11;;;;;;;0.38;0.30;;;;;;;22.34;100.00;100739.72;7390975;19;20514;-56
2022/08/29 08:00:37;;;;;;;1.42;0.32;;;;;;;22.68;100.00;100743.66;7391544;19;20018;-56
2022/08/29 08:03:03;;;;;;;1.38;0.47;;;;;;;22.79;100.00;100739.88;7396017;19;20017;-56
2022/08/29 08:05:30;;;;;;;2.50;0.10;;;;;;;22.91;100.00;100738.41;7393227;19;20086;-56
2022/08/29 08:07:56;;;;;;;0.75;0.28;;;;;;;23.13;100.00;100740.91;7389359;19;20010;-56
2022/08/29 08:10:22;;;;;;;0.63;0.45;;;;;;;23.22;100.00;100743.31;7391298;19;20020;-56
2022/08/29 08:12:50;;;;;;;2.65;0.50;;;;;;;23.36;100.00;100736.41;7391525;19;20011;-56
2022/08/29 08:15:16;;;;;;;0.63;0.43;;;;;;;23.35;100.00;100735.63;7391525;19;20339;-56
2022/08/29 08:17:43;;;;;;;0.22;0.13;;;;;;;23.27;100.00;100736.78;7391524;19;20414;-56
2022/08/29 08:20:11;;;;;;;0.20;0.13;;;;;;;23.29;100.00;100732.09;7394647;19;20010;-56
2022/08/29 08:22:38;;;;;;;0.32;0.28;;;;;;;23.37;100.00;100743.59;7398077;19;20023;-56
2022/08/29 08:25:05;;;;;;;1.55;0.20;;;;;;;23.44;100.00;100740.13;7394642;19;20348;-57
2022/08/29 08:27:31;;;;;;;0.17;0.08;;;;;;;23.47;100.00;100741.88;7391642;19;20014;-56
2022/08/29 08:29:58;;;;;;;1.00;0.10;;;;;;;23.46;100.00;100748.09;7391359;19;20021;-58
2022/08/29 08:32:24;;;;;;;0.95;0.40;;;;;;;23.53;100.00;100748.22;7391181;19;20094;-57
2022/08/29 08:34:50;;;;;;;1.13;0.13;;;;;;;23.63;100.00;100749.31;7391211;19;20010;-57
2022/08/29 08:37:17;;;;;;;0.98;0.22;;;;;;;23.75;100.00;100755.59;7396134;19;20010;-57
2022/08/29 08:39:43;;;;;;;1.27;0.20;;;;;;;23.75;100.00;100756.34;7389447;19;20038;-58
2022/08/29 08:42:31;;;;;;;1.38;0.10;;;;;;;23.68;100.00;100751.31;7391433;19;20015;-57
2022/08/29 08:45:05;;;;;;;0.38;0.20;;;;;;;23.78;100.00;100760.19;7390024;19;20481;-57
2022/08/29 08:47:38;;;;;;;1.40;0.10;;;;;;;23.68;100.00;100757.00;7389561;19;20467;-57
2022/08/29 08:50:14;;;;;;;1.92;0.40;;;;;;;23.51;100.00;100770.75;7392371;19;20014;-57
2022/08/29 08:53:06;;;;;;;0.30;0.15;;;;;;;23.43;100.00;100774.78;7389402;19;20375;-58
2022/08/29 08:55:41;;;;;;;7.10;0.32;;;;;;;23.46;100.00;100768.78;7391702;19;20014;-57
2022/08/29 08:58:16;;;;;;;0.80;0.20;;;;;;;23.58;100.00;100766.50;7390392;19;20078;-57
2022/08/29 09:00:54;;;;;;;6.65;0.57;;;;;;;23.59;100.00;100777.34;7388834;19;20350;-50
2022/08/29 09:03:27;;;;;;;0.68;0.50;;;;;;;23.41;100.00;100769.66;7388936;19;20015;-50
2022/08/29 09:06:09;;;;;;;0.30;0.10;;;;;;;23.54;100.00;100775.34;7392115;19;20023;-50
2022/08/29 09:08:49;;;;;;;4.20;0.20;;;;;;;23.68;100.00;100779.75;7389772;19;20074;-50
2022/08/29 09:11:39;;;;;;;0.10;0.00;;;;;;;23.69;100.00;100769.16;7392769;19;20770;-50
2022/08/29 09:14:41;;;;;;;0.08;0.05;;;;;;;23.53;100.00;100775.91;7390682;19;20038;-50
2022/08/29 09:17:16;;;;;;;0.17;0.13;;;;;;;23.34;100.00;100770.28;7394645;19;20014;-50
2022/08/29 09:19:43;;;;;;;0.45;0.10;;;;;;;23.44;100.00;100774.25;7393901;19;20016;-50
2022/08/29 09:22:15;;;;;;;1.10;0.10;;;;;;;23.34;100.00;100776.75;7389251;19;20011;-50
2022/08/29 09:24:47;;;;;;;1.38;0.28;;;;;;;23.08;100.00;100775.84;7389244;19;20341;-50
2022/08/29 09:27:23;;;;;;;0.95;0.10;;;;;;;23.03;100.00;100776.69;7393037;19;20025;-50
2022/08/29 09:29:59;;;;;;;0.55;0.17;;;;;;;22.98;100.00;100783.22;7395887;19;20046;-50
2022/08/29 09:32:25;;;;;;;0.75;0.50;;;;;;;22.85;100.00;100786.03;7397244;19;20458;-50
2022/08/29 09:34:51;;;;;;;0.30;0.30;;;;;;;22.63;100.00;100790.69;7396780;19;20017;-50
2022/08/29 09:37:25;;;;;;;0.90;0.32;;;;;;;22.63;100.00;100786.34;7401851;19;20017;-50
2022/08/29 09:39:59;;;;;;;1.80;0.20;;;;;;;22.49;100.00;100791.91;7393706;19;20019;-50
2022/08/29 09:42:34;;;;;;;0.30;0.22;;;;;;;22.36;100.00;100783.28;7397725;19;20006;-50
2022/08/29 09:45:07;;;;;;;1.77;0.55;;;;;;;22.38;100.00;100792.03;7396659;19;20035;-50
2022/08/29 09:47:34;;;;;;;0.63;0.25;;;;;;;22.37;100.00;100784.81;7397341;19;20018;-50
2022/08/29 09:50:03;;;;;;;0.88;0.13;;;;;;;22.49;100.00;100791.91;7399808;19;20021;-50
2022/08/29 09:52:29;;;;;;;0.45;0.32;;;;;;;22.65;100.00;100792.25;7396251;19;20018;-50
2022/08/29 09:54:56;;;;;;;0.73;0.45;;;;;;;22.78;100.00;100795.94;7396448;19;20014;-50
2022/08/29 09:57:27;;;;;;;0.82;0.22;;;;;;;22.92;100.00;100796.75;7397563;19;20494;-50
2022/08/29 10:00:22;;;;;;;1.80;0.40;;;;;;;23.04;100.00;100798.13;7397311;19;20454;-50
2022/08/29 10:02:52;;;;;;;1.63;0.45;;;;;;;23.12;100.00;100793.34;7398432;19;20011;-50
2022/08/29 10:05:43;;;;;;;0.43;0.30;;;;;;;23.10;100.00;100793.91;7398540;19;20079;-57
2022/08/29 10:08:30;;;;;;;2.55;0.10;;;;;;;23.14;100.00;100787.88;7399522;19;20011;-50
2022/08/29 10:10:59;;;;;;;1.15;0.38;;;;;;;23.18;100.00;100786.28;7397276;19;20115;-49
2022/08/29 10:13:40;;;;;;;0.47;0.20;;;;;;;23.29;100.00;100782.47;7396206;19;20447;-50
2022/08/29 10:16:32;;;;;;;0.40;0.40;;;;;;;23.42;100.00;100782.53;7397030;19;20011;-50
2022/08/29 10:19:01;;;;;;;4.75;0.30;;;;;;;23.55;100.00;100778.97;7399519;19;20545;-50
2022/08/29 10:21:32;;;;;;;0.40;0.20;;;;;;;23.76;100.00;100792.00;7395417;19;20469;-48
2022/08/29 10:24:28;;;;;;;0.32;0.28;;;;;;;23.96;100.00;100782.06;7395854;19;20017;-48
2022/08/29 10:27:30;;;;;;;0.52;0.52;;;;;;;24.15;100.00;100782.00;7399423;19;20465;-50
2022/08/29 10:30:02;;;;;;;0.30;0.10;;;;;;;24.16;100.00;100787.16;7392307;19;20039;-51
2022/08/29 10:32:46;;;;;;;0.85;0.30;;;;;;;24.37;100.00;100788.00;7393984;19;20499;-49
2022/08/29 10:35:54;;;;;;;1.65;0.20;;;;;;;24.19;100.00;100783.19;7397125;19;20033;-49
2022/08/29 10:38:45;;;;;;;2.95;0.20;;;;;;;24.28;100.00;100787.69;7393841;19;20006;-49
2022/08/29 10:41:19;;;;;;;0.20;0.10;;;;;;;23.92;100.00;100779.56;7392080;19;20576;-54
2022/08/29 10:44:00;;;;;;;0.25;0.00;;;;;;;23.84;100.00;100778.69;7393936;19;20074;-53
2022/08/29 10:47:02;;;;;;;0.10;0.10;;;;;;;22.50;100.00;100793.41;7396727;19;20010;-55
2022/08/29 10:49:29;;;;;;;0.52;0.20;;;;;;;22.81;100.00;100783.47;7396767;19;20487;-54
2022/08/29 10:52:13;;;;;;;0.30;0.15;;;;;;;23.57;100.00;100779.94;7393805;19;20063;-52
2022/08/29 10:55:27;;;;;;;0.10;0.00;;;;;;;24.02;100.00;100786.34;7393896;19;20018;-52
2022/08/29 10:58:08;;;;;;;0.10;0.08;;;;;;;23.41;100.00;100778.19;7392064;19;20021;-51
2022/08/29 11:00:51;;;;;;;0.25;0.10;;;;;;;22.36;100.00;100783.28;7391877;19;20015;-52
2022/08/29 11:03:49;;;;;;;0.38;0.10;;;;;;;22.14;100.00;100783.56;7392257;19;20011;-53
2022/08/29 11:06:29;;;;;;;0.10;0.00;;;;;;;22.69;100.00;100790.63;7396451;19;20006;-52
2022/08/29 11:09:01;;;;;;;0.10;0.00;;;;;;;22.50;100.00;100782.06;7392199;19;20048;-52
2022/08/29 11:11:29;;;;;;;0.25;0.10;;;;;;;22.14;100.00;100785.63;7395991;19;20352;-52
2022/08/29 11:14:01;;;;;;;0.00;0.00;;;;;;;21.83;100.00;100782.09;7397792;19;20003;-52
2022/08/29 11:16:36;;;;;;;0.00;0.00;;;;;;;21.80;100.00;100785.19;7398833;19;20021;-52
2022/08/29 11:19:20;;;;;;;0.10;0.00;;;;;;;21.82;100.00;100785.44;7395211;19;20006;-52
2022/08/29 11:21:57;;;;;;;0.63;0.22;;;;;;;21.86;100.00;100792.38;7393343;19;20478;-50
2022/08/29 11:24:26;;;;;;;1.83;0.28;;;;;;;22.02;100.00;100787.06;7392769;19;20373;-52
2022/08/29 11:27:08;;;;;;;2.53;0.10;;;;;;;22.94;100.00;100789.22;7395346;19;20006;-53
2022/08/29 11:29:44;;;;;;;1.25;0.10;;;;;;;23.17;100.00;100786.81;7393159;19;20015;-53
2022/08/29 11:32:31;;;;;;;0.10;0.05;;;;;;;22.66;100.00;100790.91;7392722;19;20329;-52